San Leandro — WCW8516 — position and weather

sailwx.info

Track history (hours):
 
Tides and Currents Weather Stations Pressure Air Temp Water Temp Dewpoint Dewpoint Depression Visibility Wind Speed Wind Dir Waves Ship Positions

San Leandro

Owner: BUFALO MARINE SERVICE INC, HOUSTON, TX. More information available from US FCC via Universal Licensing System and Coast Guard Vessel Documentation Center.

Last reported at 2018-Jun-21 08:04 UTC. Time now 2018-Jun-21 21:35 UTC.
Position N 29°45' W 095°06'.

Length 22 m; draft 3.4 m.

Type: Tug. MMSI: 366941850.

Date/timePositionNaut miles runAvg speedWind from/ knotsBaromVisibWave heightAir tempDewpointWater temp
2018-Jun-21 08:04N 29°45' W 095°06'0 0.0
2018-Jun-21 07:55N 29°45' W 095°06'0 0.0
2018-Jun-21 06:50N 29°45' W 095°06'0 0.5
2018-Jun-21 06:22N 29°45' W 095°06'3 0.2
2018-Jun-20 14:25N 29°44' W 095°02'3 7.2
2018-Jun-20 13:58N 29°42' W 094°60'1 2.2
2018-Jun-20 13:30N 29°41' W 095°00'0 0.2
2018-Jun-20 12:54N 29°41' W 095°01'0 0.0
2018-Jun-20 12:30N 29°41' W 095°01'0 0.0
2018-Jun-20 11:59N 29°41' W 095°01'0 0.0
2018-Jun-20 11:28N 29°41' W 095°01'0 0.0
2018-Jun-20 10:58N 29°41' W 095°01'0 0.0
2018-Jun-20 10:29N 29°41' W 095°01'0 0.0
2018-Jun-20 09:46N 29°41' W 095°01'0 0.0
2018-Jun-20 09:17N 29°41' W 095°01'0 0.0
2018-Jun-20 08:54N 29°41' W 095°01'0 0.0
2018-Jun-20 08:27N 29°41' W 095°01'0 0.0
2018-Jun-20 07:56N 29°41' W 095°01'0 0.0
2018-Jun-20 07:28N 29°41' W 095°01'0 0.0
2018-Jun-20 07:00N 29°41' W 095°01'0 0.0
2018-Jun-20 06:29N 29°41' W 095°00'1 2.2
2018-Jun-20 05:54N 29°42' W 095°01'5 1.3
2018-Jun-20 01:47N 29°45' W 095°06'0 0.0
2018-Jun-20 01:30N 29°45' W 095°06'0 0.7
2018-Jun-20 00:57N 29°45' W 095°06'0 0.0
2018-Jun-19 23:06N 29°45' W 095°06'  
2018-Jun-16 10:17N 29°42' W 095°01'2 7.7
2018-Jun-16 10:00N 29°41' W 094°59'4 7.9
2018-Jun-16 09:30N 29°38' W 094°58'8 8.1
2018-Jun-16 08:30N 29°31' W 094°53'4 7.8
2018-Jun-16 07:58N 29°27' W 094°51'4 7.4
2018-Jun-16 07:28N 29°23' W 094°49'3 6.9
2018-Jun-16 07:00N 29°21' W 094°47'1 0.2
2018-Jun-15 21:34N 29°21' W 094°45'0 0.0
2018-Jun-15 21:26N 29°21' W 094°45'0 0.0
2018-Jun-15 20:59N 29°21' W 094°45'0 0.0
2018-Jun-15 20:29N 29°21' W 094°45'1 1.9
2018-Jun-15 20:00N 29°21' W 094°46'4 7.0
2018-Jun-15 19:30N 29°24' W 094°49'15 7.9
2018-Jun-15 17:36N 29°37' W 094°57'1 8.1
2018-Jun-15 17:26N 29°38' W 094°58'3 7.9
2018-Jun-15 17:00N 29°41' W 094°59'4 1.0
2018-Jun-15 12:49N 29°44' W 095°03'0 0.0
2018-Jun-15 12:28N 29°44' W 095°03'0 0.0
2018-Jun-15 11:43N 29°44' W 095°03'3 0.1
2018-Jun-14 14:06N 29°45' W 095°06'0 0.0
2018-Jun-14 13:50N 29°45' W 095°06'0 0.0
2018-Jun-14 13:30N 29°45' W 095°06'0 0.0
2018-Jun-14 13:00N 29°45' W 095°06'1 0.2
2018-Jun-14 09:16N 29°45' W 095°07'0 0.0
2018-Jun-14 08:59N 29°45' W 095°07'0 0.0
2018-Jun-14 08:23N 29°45' W 095°07'0 0.0
2018-Jun-14 07:56N 29°45' W 095°07'0 0.0
2018-Jun-14 07:29N 29°45' W 095°07'0 0.0
2018-Jun-14 06:54N 29°45' W 095°07'0 0.0
2018-Jun-14 06:30N 29°45' W 095°07'0 0.0
2018-Jun-14 05:49N 29°45' W 095°07'4 0.1
2018-Jun-12 11:13N 29°45' W 095°11'3 7.4
2018-Jun-12 10:45N 29°44' W 095°07'6 0.3
2018-Jun-11 11:43N 29°42' W 095°01'2 8.9
2018-Jun-11 11:30N 29°41' W 094°59'5 9.2
2018-Jun-11 11:00N 29°37' W 094°57'16 8.9
2018-Jun-11 09:13N 29°23' W 094°49'210.8
2018-Jun-11 09:00N 29°21' W 094°47'3 5.4
2018-Jun-11 08:28N 29°21' W 094°44'  
Track history (hours):
 
Tides and Currents Weather Stations Pressure Air Temp Water Temp Dewpoint Dewpoint Depression Visibility Wind Speed Wind Dir Waves Ship Positions

San Leandro

Owner: BUFALO MARINE SERVICE INC, HOUSTON, TX. More information available from US FCC via Universal Licensing System and Coast Guard Vessel Documentation Center.

Last reported at 2018-Jun-21 08:04 UTC. Time now 2018-Jun-21 21:35 UTC.
Position N 29°45' W 095°06'.

Length 22 m; draft 3.4 m.

Type: Tug. MMSI: 366941850.

Date/timePositionNaut miles runAvg speedWind from/ knotsBaromVisibWave heightAir tempDewpointWater temp
2018-Jun-21 08:04N 29°45' W 095°06'0 0.0
2018-Jun-21 07:55N 29°45' W 095°06'0 0.0
2018-Jun-21 06:50N 29°45' W 095°06'0 0.5
2018-Jun-21 06:22N 29°45' W 095°06'3 0.2
2018-Jun-20 14:25N 29°44' W 095°02'3 7.2
2018-Jun-20 13:58N 29°42' W 094°60'1 2.2
2018-Jun-20 13:30N 29°41' W 095°00'0 0.2
2018-Jun-20 12:54N 29°41' W 095°01'0 0.0
2018-Jun-20 12:30N 29°41' W 095°01'0 0.0
2018-Jun-20 11:59N 29°41' W 095°01'0 0.0
2018-Jun-20 11:28N 29°41' W 095°01'0 0.0
2018-Jun-20 10:58N 29°41' W 095°01'0 0.0
2018-Jun-20 10:29N 29°41' W 095°01'0 0.0
2018-Jun-20 09:46N 29°41' W 095°01'0 0.0
2018-Jun-20 09:17N 29°41' W 095°01'0 0.0
2018-Jun-20 08:54N 29°41' W 095°01'0 0.0
2018-Jun-20 08:27N 29°41' W 095°01'0 0.0
2018-Jun-20 07:56N 29°41' W 095°01'0 0.0
2018-Jun-20 07:28N 29°41' W 095°01'0 0.0
2018-Jun-20 07:00N 29°41' W 095°01'0 0.0
2018-Jun-20 06:29N 29°41' W 095°00'1 2.2
2018-Jun-20 05:54N 29°42' W 095°01'5 1.3
2018-Jun-20 01:47N 29°45' W 095°06'0 0.0
2018-Jun-20 01:30N 29°45' W 095°06'0 0.7
2018-Jun-20 00:57N 29°45' W 095°06'0 0.0
2018-Jun-19 23:06N 29°45' W 095°06'  
2018-Jun-16 10:17N 29°42' W 095°01'2 7.7
2018-Jun-16 10:00N 29°41' W 094°59'4 7.9
2018-Jun-16 09:30N 29°38' W 094°58'8 8.1
2018-Jun-16 08:30N 29°31' W 094°53'4 7.8
2018-Jun-16 07:58N 29°27' W 094°51'4 7.4
2018-Jun-16 07:28N 29°23' W 094°49'3 6.9
2018-Jun-16 07:00N 29°21' W 094°47'1 0.2
2018-Jun-15 21:34N 29°21' W 094°45'0 0.0
2018-Jun-15 21:26N 29°21' W 094°45'0 0.0
2018-Jun-15 20:59N 29°21' W 094°45'0 0.0
2018-Jun-15 20:29N 29°21' W 094°45'1 1.9
2018-Jun-15 20:00N 29°21' W 094°46'4 7.0
2018-Jun-15 19:30N 29°24' W 094°49'15 7.9
2018-Jun-15 17:36N 29°37' W 094°57'1 8.1
2018-Jun-15 17:26N 29°38' W 094°58'3 7.9
2018-Jun-15 17:00N 29°41' W 094°59'4 1.0
2018-Jun-15 12:49N 29°44' W 095°03'0 0.0
2018-Jun-15 12:28N 29°44' W 095°03'0 0.0
2018-Jun-15 11:43N 29°44' W 095°03'3 0.1
2018-Jun-14 14:06N 29°45' W 095°06'0 0.0
2018-Jun-14 13:50N 29°45' W 095°06'0 0.0
2018-Jun-14 13:30N 29°45' W 095°06'0 0.0
2018-Jun-14 13:00N 29°45' W 095°06'1 0.2
2018-Jun-14 09:16N 29°45' W 095°07'0 0.0
2018-Jun-14 08:59N 29°45' W 095°07'0 0.0
2018-Jun-14 08:23N 29°45' W 095°07'0 0.0
2018-Jun-14 07:56N 29°45' W 095°07'0 0.0
2018-Jun-14 07:29N 29°45' W 095°07'0 0.0
2018-Jun-14 06:54N 29°45' W 095°07'0 0.0
2018-Jun-14 06:30N 29°45' W 095°07'0 0.0
2018-Jun-14 05:49N 29°45' W 095°07'4 0.1
2018-Jun-12 11:13N 29°45' W 095°11'3 7.4
2018-Jun-12 10:45N 29°44' W 095°07'6 0.3
2018-Jun-11 11:43N 29°42' W 095°01'2 8.9
2018-Jun-11 11:30N 29°41' W 094°59'5 9.2
2018-Jun-11 11:00N 29°37' W 094°57'16 8.9
2018-Jun-11 09:13N 29°23' W 094°49'210.8
2018-Jun-11 09:00N 29°21' W 094°47'3 5.4
2018-Jun-11 08:28N 29°21' W 094°44'  

Dump ship's entire track history